sensor_id;sensor_type;location;lat;lon;timestamp;temperature;humidity
14170;DHT22;63889;50.596;8.690;2023-11-21T00:02:18;9.60;99.90
14170;DHT22;63889;50.596;8.690;2023-11-21T00:04:43;9.60;99.90
14170;DHT22;63889;50.596;8.690;2023-11-21T00:07:09;9.60;99.90
14170;DHT22;63889;50.596;8.690;2023-11-21T00:09:34;9.60;99.90
14170;DHT22;63889;50.596;8.690;2023-11-21T00:12:02;9.60;99.90
14170;DHT22;63889;50.596;8.690;2023-11-21T00:14:27;9.60;99.90
14170;DHT22;63889;50.596;8.690;2023-11-21T00:16:53;9.60;99.90
14170;DHT22;63889;50.596;8.690;2023-11-21T00:19:19;9.50;99.90
14170;DHT22;63889;50.596;8.690;2023-11-21T00:21:44;9.60;99.90
14170;DHT22;63889;50.596;8.690;2023-11-21T00:24:11;9.60;99.90
14170;DHT22;63889;50.596;8.690;2023-11-21T00:26:39;9.70;99.90
14170;DHT22;63889;50.596;8.690;2023-11-21T00:29:05;9.70;99.90
14170;DHT22;63889;50.596;8.690;2023-11-21T00:31:34;9.70;99.90
14170;DHT22;63889;50.596;8.690;2023-11-21T00:34:02;9.70;99.90
14170;DHT22;63889;50.596;8.690;2023-11-21T00:36:29;9.70;99.90
14170;DHT22;63889;50.596;8.690;2023-11-21T00:38:54;9.70;99.90
14170;DHT22;63889;50.596;8.690;2023-11-21T00:41:21;9.70;99.90
14170;DHT22;63889;50.596;8.690;2023-11-21T00:43:46;9.70;99.90
14170;DHT22;63889;50.596;8.690;2023-11-21T00:46:12;9.70;99.90
14170;DHT22;63889;50.596;8.690;2023-11-21T00:48:38;9.70;99.90
14170;DHT22;63889;50.596;8.690;2023-11-21T00:51:04;9.80;99.90
14170;DHT22;63889;50.596;8.690;2023-11-21T00:53:31;9.70;99.90
14170;DHT22;63889;50.596;8.690;2023-11-21T00:55:57;9.70;99.90
14170;DHT22;63889;50.596;8.690;2023-11-21T00:58:26;9.70;99.90
14170;DHT22;63889;50.596;8.690;2023-11-21T01:00:52;9.70;99.90
14170;DHT22;63889;50.596;8.690;2023-11-21T01:03:18;9.70;99.90
14170;DHT22;63889;50.596;8.690;2023-11-21T01:05:44;9.70;99.90
14170;DHT22;63889;50.596;8.690;2023-11-21T01:08:09;9.70;99.90
14170;DHT22;63889;50.596;8.690;2023-11-21T01:10:35;9.60;99.90
14170;DHT22;63889;50.596;8.690;2023-11-21T01:13:01;9.60;99.90
14170;DHT22;63889;50.596;8.690;2023-11-21T01:15:27;9.60;99.90
14170;DHT22;63889;50.596;8.690;2023-11-21T01:17:52;9.70;99.90
14170;DHT22;63889;50.596;8.690;2023-11-21T01:20:18;9.60;99.90
14170;DHT22;63889;50.596;8.690;2023-11-21T01:22:44;9.60;99.90
14170;DHT22;63889;50.596;8.690;2023-11-21T01:25:10;9.60;99.90
14170;DHT22;63889;50.596;8.690;2023-11-21T01:27:36;9.50;99.90
14170;DHT22;63889;50.596;8.690;2023-11-21T01:30:02;9.50;99.90
14170;DHT22;63889;50.596;8.690;2023-11-21T01:32:28;9.50;99.90
14170;DHT22;63889;50.596;8.690;2023-11-21T01:34:54;9.50;99.90
14170;DHT22;63889;50.596;8.690;2023-11-21T01:37:20;9.50;99.90
14170;DHT22;63889;50.596;8.690;2023-11-21T01:39:47;9.50;99.90
14170;DHT22;63889;50.596;8.690;2023-11-21T01:42:13;9.50;99.90
14170;DHT22;63889;50.596;8.690;2023-11-21T01:44:39;9.50;99.90
14170;DHT22;63889;50.596;8.690;2023-11-21T01:47:08;9.50;99.90
14170;DHT22;63889;50.596;8.690;2023-11-21T01:49:35;9.50;99.90
14170;DHT22;63889;50.596;8.690;2023-11-21T01:52:01;9.50;99.90
14170;DHT22;63889;50.596;8.690;2023-11-21T01:54:27;9.50;99.90
14170;DHT22;63889;50.596;8.690;2023-11-21T01:56:58;9.50;99.90
14170;DHT22;63889;50.596;8.690;2023-11-21T01:59:36;9.50;99.90
14170;DHT22;63889;50.596;8.690;2023-11-21T02:02:03;9.50;99.90
14170;DHT22;63889;50.596;8.690;2023-11-21T02:04:35;9.50;99.90
14170;DHT22;63889;50.596;8.690;2023-11-21T02:07:03;9.50;99.90
14170;DHT22;63889;50.596;8.690;2023-11-21T02:09:32;9.60;99.90
14170;DHT22;63889;50.596;8.690;2023-11-21T02:12:03;9.60;99.90
14170;DHT22;63889;50.596;8.690;2023-11-21T02:14:30;9.60;99.90
14170;DHT22;63889;50.596;8.690;2023-11-21T02:16:56;9.60;99.90
14170;DHT22;63889;50.596;8.690;2023-11-21T02:19:23;9.60;99.90
14170;DHT22;63889;50.596;8.690;2023-11-21T02:21:54;9.60;99.90
14170;DHT22;63889;50.596;8.690;2023-11-21T02:24:23;9.60;99.90
14170;DHT22;63889;50.596;8.690;2023-11-21T02:26:49;9.50;99.90
14170;DHT22;63889;50.596;8.690;2023-11-21T02:29:19;9.50;99.90
14170;DHT22;63889;50.596;8.690;2023-11-21T02:31:47;9.50;99.90
14170;DHT22;63889;50.596;8.690;2023-11-21T02:34:14;9.40;99.90
14170;DHT22;63889;50.596;8.690;2023-11-21T02:36:40;9.50;99.90
14170;DHT22;63889;50.596;8.690;2023-11-21T02:39:06;9.40;99.90
14170;DHT22;63889;50.596;8.690;2023-11-21T02:41:33;9.40;99.90
14170;DHT22;63889;50.596;8.690;2023-11-21T02:44:00;9.40;99.90
14170;DHT22;63889;50.596;8.690;2023-11-21T02:46:25;9.40;99.90
14170;DHT22;63889;50.596;8.690;2023-11-21T02:48:51;9.30;99.90
14170;DHT22;63889;50.596;8.690;2023-11-21T02:51:19;9.40;99.90
14170;DHT22;63889;50.596;8.690;2023-11-21T02:53:44;9.40;99.90
14170;DHT22;63889;50.596;8.690;2023-11-21T02:56:12;9.40;99.90
14170;DHT22;63889;50.596;8.690;2023-11-21T02:58:37;9.40;99.90
14170;DHT22;63889;50.596;8.690;2023-11-21T03:01:04;9.30;99.90
14170;DHT22;63889;50.596;8.690;2023-11-21T03:03:33;9.20;99.90
14170;DHT22;63889;50.596;8.690;2023-11-21T03:05:59;9.20;99.90
14170;DHT22;63889;50.596;8.690;2023-11-21T03:08:24;9.10;99.90
14170;DHT22;63889;50.596;8.690;2023-11-21T03:10:50;8.90;99.90
14170;DHT22;63889;50.596;8.690;2023-11-21T03:13:15;8.90;99.90
14170;DHT22;63889;50.596;8.690;2023-11-21T03:15:41;8.90;99.90
14170;DHT22;63889;50.596;8.690;2023-11-21T03:18:08;9.00;99.90
14170;DHT22;63889;50.596;8.690;2023-11-21T03:20:33;9.00;99.90
14170;DHT22;63889;50.596;8.690;2023-11-21T03:23:00;8.80;99.90
14170;DHT22;63889;50.596;8.690;2023-11-21T03:25:25;8.90;99.90
14170;DHT22;63889;50.596;8.690;2023-11-21T03:27:51;8.90;99.90
14170;DHT22;63889;50.596;8.690;2023-11-21T03:30:16;8.80;99.90
14170;DHT22;63889;50.596;8.690;2023-11-21T03:32:42;8.80;99.90
14170;DHT22;63889;50.596;8.690;2023-11-21T03:35:07;8.70;99.90
14170;DHT22;63889;50.596;8.690;2023-11-21T03:37:33;8.80;99.90
14170;DHT22;63889;50.596;8.690;2023-11-21T03:39:58;8.80;99.90
14170;DHT22;63889;50.596;8.690;2023-11-21T03:42:24;8.80;99.90
14170;DHT22;63889;50.596;8.690;2023-11-21T03:44:52;8.90;99.90
14170;DHT22;63889;50.596;8.690;2023-11-21T03:47:18;9.00;99.90
14170;DHT22;63889;50.596;8.690;2023-11-21T03:49:45;9.00;99.90
14170;DHT22;63889;50.596;8.690;2023-11-21T03:52:10;9.00;99.90
14170;DHT22;63889;50.596;8.690;2023-11-21T03:54:37;9.00;99.90
14170;DHT22;63889;50.596;8.690;2023-11-21T03:57:03;9.00;99.90
14170;DHT22;63889;50.596;8.690;2023-11-21T03:59:28;9.00;99.90
14170;DHT22;63889;50.596;8.690;2023-11-21T04:01:56;9.10;99.90
14170;DHT22;63889;50.596;8.690;2023-11-21T04:04:22;9.00;99.90
14170;DHT22;63889;50.596;8.690;2023-11-21T04:06:48;8.80;99.90
14170;DHT22;63889;50.596;8.690;2023-11-21T04:09:13;8.90;99.90
14170;DHT22;63889;50.596;8.690;2023-11-21T04:11:39;8.80;99.90
14170;DHT22;63889;50.596;8.690;2023-11-21T04:14:04;8.80;99.90
14170;DHT22;63889;50.596;8.690;2023-11-21T04:16:30;8.90;99.90
14170;DHT22;63889;50.596;8.690;2023-11-21T04:18:55;8.80;99.90
14170;DHT22;63889;50.596;8.690;2023-11-21T04:21:22;8.80;99.90
14170;DHT22;63889;50.596;8.690;2023-11-21T04:23:49;8.70;99.90
14170;DHT22;63889;50.596;8.690;2023-11-21T04:26:15;8.80;99.90
14170;DHT22;63889;50.596;8.690;2023-11-21T04:28:40;8.60;99.90
14170;DHT22;63889;50.596;8.690;2023-11-21T04:31:06;8.60;99.90
14170;DHT22;63889;50.596;8.690;2023-11-21T04:33:32;8.50;99.90
14170;DHT22;63889;50.596;8.690;2023-11-21T04:35:58;8.60;99.90
14170;DHT22;63889;50.596;8.690;2023-11-21T04:38:23;8.60;99.90
14170;DHT22;63889;50.596;8.690;2023-11-21T04:40:49;8.70;99.90
14170;DHT22;63889;50.596;8.690;2023-11-21T04:43:14;8.80;99.90
14170;DHT22;63889;50.596;8.690;2023-11-21T04:45:40;8.80;99.90
14170;DHT22;63889;50.596;8.690;2023-11-21T04:48:07;8.80;99.90
14170;DHT22;63889;50.596;8.690;2023-11-21T04:50:33;8.80;99.90
14170;DHT22;63889;50.596;8.690;2023-11-21T04:52:59;8.80;99.90
14170;DHT22;63889;50.596;8.690;2023-11-21T04:55:24;8.80;99.90
14170;DHT22;63889;50.596;8.690;2023-11-21T04:57:53;8.80;99.90
14170;DHT22;63889;50.596;8.690;2023-11-21T05:00:19;8.70;99.90
14170;DHT22;63889;50.596;8.690;2023-11-21T05:02:45;8.70;99.90
14170;DHT22;63889;50.596;8.690;2023-11-21T05:05:10;8.70;99.90
14170;DHT22;63889;50.596;8.690;2023-11-21T05:07:36;8.70;99.90
14170;DHT22;63889;50.596;8.690;2023-11-21T05:10:04;8.70;99.90
14170;DHT22;63889;50.596;8.690;2023-11-21T05:12:33;8.80;99.90
14170;DHT22;63889;50.596;8.690;2023-11-21T05:15:04;8.80;99.90
14170;DHT22;63889;50.596;8.690;2023-11-21T05:17:33;8.80;99.90
14170;DHT22;63889;50.596;8.690;2023-11-21T05:19:59;8.80;99.90
14170;DHT22;63889;50.596;8.690;2023-11-21T05:22:29;8.70;99.90
14170;DHT22;63889;50.596;8.690;2023-11-21T05:24:54;8.80;99.90
14170;DHT22;63889;50.596;8.690;2023-11-21T05:27:20;8.80;99.90
14170;DHT22;63889;50.596;8.690;2023-11-21T05:29:45;8.80;99.90
14170;DHT22;63889;50.596;8.690;2023-11-21T05:32:11;8.80;99.90
14170;DHT22;63889;50.596;8.690;2023-11-21T05:34:36;8.80;99.90
14170;DHT22;63889;50.596;8.690;2023-11-21T05:37:02;8.80;99.90
14170;DHT22;63889;50.596;8.690;2023-11-21T05:39:27;8.80;99.90
14170;DHT22;63889;50.596;8.690;2023-11-21T05:41:53;8.80;99.90
14170;DHT22;63889;50.596;8.690;2023-11-21T05:44:19;8.80;99.90
14170;DHT22;63889;50.596;8.690;2023-11-21T05:46:44;8.80;99.90
14170;DHT22;63889;50.596;8.690;2023-11-21T05:49:10;8.80;99.90
14170;DHT22;63889;50.596;8.690;2023-11-21T05:51:37;8.80;99.90
14170;DHT22;63889;50.596;8.690;2023-11-21T05:54:04;8.70;99.90
14170;DHT22;63889;50.596;8.690;2023-11-21T05:56:29;8.80;99.90
14170;DHT22;63889;50.596;8.690;2023-11-21T05:58:55;8.80;99.90
14170;DHT22;63889;50.596;8.690;2023-11-21T06:01:20;8.80;99.90
14170;DHT22;63889;50.596;8.690;2023-11-21T06:03:46;8.80;99.90
14170;DHT22;63889;50.596;8.690;2023-11-21T06:06:11;8.80;99.90
14170;DHT22;63889;50.596;8.690;2023-11-21T06:08:37;8.80;99.90
14170;DHT22;63889;50.596;8.690;2023-11-21T06:11:02;8.90;99.90
14170;DHT22;63889;50.596;8.690;2023-11-21T06:13:28;8.80;99.90
14170;DHT22;63889;50.596;8.690;2023-11-21T06:15:54;8.80;99.90
14170;DHT22;63889;50.596;8.690;2023-11-21T06:18:20;8.80;99.90
14170;DHT22;63889;50.596;8.690;2023-11-21T06:20:46;8.90;99.90
14170;DHT22;63889;50.596;8.690;2023-11-21T06:23:12;8.90;99.90
14170;DHT22;63889;50.596;8.690;2023-11-21T06:25:37;8.90;99.90
14170;DHT22;63889;50.596;8.690;2023-11-21T06:28:03;8.90;99.90
14170;DHT22;63889;50.596;8.690;2023-11-21T06:30:29;8.80;99.90
14170;DHT22;63889;50.596;8.690;2023-11-21T06:32:54;8.80;99.90
14170;DHT22;63889;50.596;8.690;2023-11-21T06:35:21;8.80;99.90
14170;DHT22;63889;50.596;8.690;2023-11-21T06:37:47;8.80;99.90
14170;DHT22;63889;50.596;8.690;2023-11-21T06:40:13;8.80;99.90
14170;DHT22;63889;50.596;8.690;2023-11-21T06:42:40;8.80;99.90
14170;DHT22;63889;50.596;8.690;2023-11-21T06:45:07;8.80;99.90
14170;DHT22;63889;50.596;8.690;2023-11-21T06:47:32;8.80;99.90
14170;DHT22;63889;50.596;8.690;2023-11-21T06:49:58;8.90;99.90
14170;DHT22;63889;50.596;8.690;2023-11-21T06:52:24;8.80;99.90
14170;DHT22;63889;50.596;8.690;2023-11-21T06:54:50;8.70;99.90
14170;DHT22;63889;50.596;8.690;2023-11-21T06:57:15;8.70;99.90
14170;DHT22;63889;50.596;8.690;2023-11-21T06:59:41;8.80;99.90
14170;DHT22;63889;50.596;8.690;2023-11-21T07:02:07;8.80;99.90
14170;DHT22;63889;50.596;8.690;2023-11-21T07:04:33;8.80;99.90
14170;DHT22;63889;50.596;8.690;2023-11-21T07:06:59;8.80;99.90
14170;DHT22;63889;50.596;8.690;2023-11-21T07:09:24;8.80;99.90
14170;DHT22;63889;50.596;8.690;2023-11-21T07:11:51;8.80;99.90
14170;DHT22;63889;50.596;8.690;2023-11-21T07:14:17;8.80;99.90
14170;DHT22;63889;50.596;8.690;2023-11-21T07:16:45;8.80;99.90
14170;DHT22;63889;50.596;8.690;2023-11-21T07:19:10;8.80;99.90
14170;DHT22;63889;50.596;8.690;2023-11-21T07:21:38;8.80;99.90
14170;DHT22;63889;50.596;8.690;2023-11-21T07:24:05;8.90;99.90
14170;DHT22;63889;50.596;8.690;2023-11-21T07:26:32;8.80;99.90
14170;DHT22;63889;50.596;8.690;2023-11-21T07:28:58;8.80;99.90
14170;DHT22;63889;50.596;8.690;2023-11-21T07:31:24;8.80;99.90
14170;DHT22;63889;50.596;8.690;2023-11-21T07:33:50;8.80;99.90
14170;DHT22;63889;50.596;8.690;2023-11-21T07:36:17;8.80;99.90
14170;DHT22;63889;50.596;8.690;2023-11-21T07:38:48;8.80;99.90
14170;DHT22;63889;50.596;8.690;2023-11-21T07:41:14;8.70;99.90
14170;DHT22;63889;50.596;8.690;2023-11-21T07:43:46;8.70;99.90
14170;DHT22;63889;50.596;8.690;2023-11-21T07:46:12;8.70;99.90
14170;DHT22;63889;50.596;8.690;2023-11-21T07:48:38;8.70;99.90
14170;DHT22;63889;50.596;8.690;2023-11-21T07:51:04;8.70;99.90
14170;DHT22;63889;50.596;8.690;2023-11-21T07:53:30;8.80;99.90
14170;DHT22;63889;50.596;8.690;2023-11-21T07:56:03;8.80;99.90
14170;DHT22;63889;50.596;8.690;2023-11-21T07:58:28;8.70;99.90
14170;DHT22;63889;50.596;8.690;2023-11-21T08:00:54;8.70;99.90
14170;DHT22;63889;50.596;8.690;2023-11-21T08:03:20;8.80;99.90
14170;DHT22;63889;50.596;8.690;2023-11-21T08:05:46;8.80;99.90
14170;DHT22;63889;50.596;8.690;2023-11-21T08:08:12;8.90;99.90
14170;DHT22;63889;50.596;8.690;2023-11-21T08:10:37;8.80;99.90
14170;DHT22;63889;50.596;8.690;2023-11-21T08:13:04;8.90;99.90
14170;DHT22;63889;50.596;8.690;2023-11-21T08:15:30;8.90;99.90
14170;DHT22;63889;50.596;8.690;2023-11-21T08:17:57;8.80;99.90
14170;DHT22;63889;50.596;8.690;2023-11-21T08:20:24;8.80;99.90
14170;DHT22;63889;50.596;8.690;2023-11-21T08:22:50;8.80;99.90
14170;DHT22;63889;50.596;8.690;2023-11-21T08:25:17;8.80;99.90
14170;DHT22;63889;50.596;8.690;2023-11-21T08:27:45;8.90;99.90
14170;DHT22;63889;50.596;8.690;2023-11-21T08:30:11;9.00;99.90
14170;DHT22;63889;50.596;8.690;2023-11-21T08:32:37;9.10;99.90
14170;DHT22;63889;50.596;8.690;2023-11-21T08:35:03;9.20;99.90
14170;DHT22;63889;50.596;8.690;2023-11-21T08:37:29;9.30;99.90
14170;DHT22;63889;50.596;8.690;2023-11-21T08:39:58;9.30;99.90
14170;DHT22;63889;50.596;8.690;2023-11-21T08:42:25;9.30;99.90
14170;DHT22;63889;50.596;8.690;2023-11-21T08:44:50;9.30;99.90
14170;DHT22;63889;50.596;8.690;2023-11-21T08:47:16;9.30;99.90
14170;DHT22;63889;50.596;8.690;2023-11-21T08:49:42;9.40;99.90
14170;DHT22;63889;50.596;8.690;2023-11-21T08:52:07;9.40;99.90
14170;DHT22;63889;50.596;8.690;2023-11-21T08:54:33;9.40;99.90
14170;DHT22;63889;50.596;8.690;2023-11-21T08:56:59;9.30;99.90
14170;DHT22;63889;50.596;8.690;2023-11-21T08:59:26;9.30;99.90
14170;DHT22;63889;50.596;8.690;2023-11-21T09:01:52;9.30;99.90
14170;DHT22;63889;50.596;8.690;2023-11-21T09:04:17;9.30;99.90
14170;DHT22;63889;50.596;8.690;2023-11-21T09:06:43;9.40;99.90
14170;DHT22;63889;50.596;8.690;2023-11-21T09:09:08;9.40;99.90
14170;DHT22;63889;50.596;8.690;2023-11-21T09:11:36;9.30;99.90
14170;DHT22;63889;50.596;8.690;2023-11-21T09:14:02;9.40;99.90
14170;DHT22;63889;50.596;8.690;2023-11-21T09:16:31;9.40;99.90
14170;DHT22;63889;50.596;8.690;2023-11-21T09:18:57;9.40;99.90
14170;DHT22;63889;50.596;8.690;2023-11-21T09:21:22;9.50;99.90
14170;DHT22;63889;50.596;8.690;2023-11-21T09:23:49;9.50;99.90
14170;DHT22;63889;50.596;8.690;2023-11-21T09:26:14;9.60;99.90
14170;DHT22;63889;50.596;8.690;2023-11-21T09:28:42;9.60;99.90
14170;DHT22;63889;50.596;8.690;2023-11-21T09:31:11;9.60;99.90
14170;DHT22;63889;50.596;8.690;2023-11-21T09:33:37;9.50;99.90
14170;DHT22;63889;50.596;8.690;2023-11-21T09:36:04;9.50;99.90
14170;DHT22;63889;50.596;8.690;2023-11-21T09:38:30;9.50;99.90
14170;DHT22;63889;50.596;8.690;2023-11-21T09:40:56;9.50;99.90
14170;DHT22;63889;50.596;8.690;2023-11-21T09:43:24;9.40;99.90
14170;DHT22;63889;50.596;8.690;2023-11-21T09:46:00;9.50;99.90
14170;DHT22;63889;50.596;8.690;2023-11-21T09:48:27;9.60;99.90
14170;DHT22;63889;50.596;8.690;2023-11-21T09:50:54;9.70;99.90
14170;DHT22;63889;50.596;8.690;2023-11-21T09:53:21;9.70;99.90
14170;DHT22;63889;50.596;8.690;2023-11-21T09:55:51;9.80;99.90
14170;DHT22;63889;50.596;8.690;2023-11-21T09:58:18;9.90;99.90
14170;DHT22;63889;50.596;8.690;2023-11-21T10:00:46;9.90;99.90
14170;DHT22;63889;50.596;8.690;2023-11-21T10:03:12;9.90;99.90
14170;DHT22;63889;50.596;8.690;2023-11-21T10:05:39;9.90;99.90
14170;DHT22;63889;50.596;8.690;2023-11-21T10:08:08;9.80;99.90
14170;DHT22;63889;50.596;8.690;2023-11-21T10:10:36;9.90;99.90
14170;DHT22;63889;50.596;8.690;2023-11-21T10:13:03;9.90;99.90
14170;DHT22;63889;50.596;8.690;2023-11-21T10:15:33;10.10;99.90
14170;DHT22;63889;50.596;8.690;2023-11-21T10:18:04;10.30;99.90
14170;DHT22;63889;50.596;8.690;2023-11-21T10:20:32;10.50;99.90
14170;DHT22;63889;50.596;8.690;2023-11-21T10:22:59;10.60;99.90
14170;DHT22;63889;50.596;8.690;2023-11-21T10:25:28;10.70;99.90
14170;DHT22;63889;50.596;8.690;2023-11-21T10:27:58;10.80;99.90
14170;DHT22;63889;50.596;8.690;2023-11-21T10:30:36;10.90;99.90
14170;DHT22;63889;50.596;8.690;2023-11-21T10:33:04;10.80;99.90
14170;DHT22;63889;50.596;8.690;2023-11-21T10:35:45;10.80;99.90
14170;DHT22;63889;50.596;8.690;2023-11-21T10:38:19;10.80;99.90
14170;DHT22;63889;50.596;8.690;2023-11-21T10:40:46;10.90;99.90
14170;DHT22;63889;50.596;8.690;2023-11-21T10:43:13;10.90;99.90
14170;DHT22;63889;50.596;8.690;2023-11-21T10:45:41;11.00;99.90
14170;DHT22;63889;50.596;8.690;2023-11-21T10:48:09;11.00;99.90
14170;DHT22;63889;50.596;8.690;2023-11-21T10:50:36;11.00;99.90
14170;DHT22;63889;50.596;8.690;2023-11-21T10:53:03;11.00;99.90
14170;DHT22;63889;50.596;8.690;2023-11-21T10:55:30;11.00;99.90
14170;DHT22;63889;50.596;8.690;2023-11-21T10:57:59;11.00;99.90
14170;DHT22;63889;50.596;8.690;2023-11-21T11:00:27;11.10;99.90
14170;DHT22;63889;50.596;8.690;2023-11-21T11:02:53;11.00;99.90
14170;DHT22;63889;50.596;8.690;2023-11-21T11:05:23;10.90;99.90
14170;DHT22;63889;50.596;8.690;2023-11-21T11:07:56;11.00;99.90
14170;DHT22;63889;50.596;8.690;2023-11-21T11:10:25;11.00;99.90
14170;DHT22;63889;50.596;8.690;2023-11-21T11:12:55;11.10;99.90
14170;DHT22;63889;50.596;8.690;2023-11-21T11:15:23;11.10;99.90
14170;DHT22;63889;50.596;8.690;2023-11-21T11:17:50;11.10;99.90
14170;DHT22;63889;50.596;8.690;2023-11-21T11:20:16;11.10;99.90
14170;DHT22;63889;50.596;8.690;2023-11-21T11:25:14;11.20;99.90
14170;DHT22;63889;50.596;8.690;2023-11-21T11:28:06;11.30;99.90
14170;DHT22;63889;50.596;8.690;2023-11-21T11:33:07;11.40;99.90
14170;DHT22;63889;50.596;8.690;2023-11-21T11:36:15;11.20;99.90
14170;DHT22;63889;50.596;8.690;2023-11-21T11:38:46;11.20;99.90
14170;DHT22;63889;50.596;8.690;2023-11-21T11:41:12;11.30;99.90
14170;DHT22;63889;50.596;8.690;2023-11-21T11:43:38;11.30;99.90
14170;DHT22;63889;50.596;8.690;2023-11-21T11:46:10;11.20;99.90
14170;DHT22;63889;50.596;8.690;2023-11-21T11:48:39;11.40;99.90
14170;DHT22;63889;50.596;8.690;2023-11-21T11:51:15;11.30;99.90
14170;DHT22;63889;50.596;8.690;2023-11-21T11:53:45;11.40;99.90
14170;DHT22;63889;50.596;8.690;2023-11-21T11:56:24;11.40;99.90
14170;DHT22;63889;50.596;8.690;2023-11-21T11:58:54;11.30;99.90
14170;DHT22;63889;50.596;8.690;2023-11-21T12:01:22;11.30;99.90
14170;DHT22;63889;50.596;8.690;2023-11-21T12:06:51;11.30;99.90
14170;DHT22;63889;50.596;8.690;2023-11-21T12:11:45;11.30;99.90
14170;DHT22;63889;50.596;8.690;2023-11-21T12:14:12;11.30;99.90
14170;DHT22;63889;50.596;8.690;2023-11-21T12:16:39;11.40;99.90
14170;DHT22;63889;50.596;8.690;2023-11-21T12:19:04;11.40;99.90
14170;DHT22;63889;50.596;8.690;2023-11-21T12:21:30;11.40;99.90
14170;DHT22;63889;50.596;8.690;2023-11-21T12:23:57;11.40;99.90
14170;DHT22;63889;50.596;8.690;2023-11-21T12:26:26;11.40;99.90
14170;DHT22;63889;50.596;8.690;2023-11-21T12:28:53;11.30;99.90
14170;DHT22;63889;50.596;8.690;2023-11-21T12:31:24;11.40;99.90
14170;DHT22;63889;50.596;8.690;2023-11-21T12:33:50;11.30;99.90
14170;DHT22;63889;50.596;8.690;2023-11-21T12:36:16;11.40;99.90
14170;DHT22;63889;50.596;8.690;2023-11-21T12:38:42;11.50;99.90
14170;DHT22;63889;50.596;8.690;2023-11-21T12:41:11;11.40;99.90
14170;DHT22;63889;50.596;8.690;2023-11-21T12:43:36;11.40;99.90
14170;DHT22;63889;50.596;8.690;2023-11-21T12:46:06;11.40;99.90
14170;DHT22;63889;50.596;8.690;2023-11-21T12:48:32;11.30;99.90
14170;DHT22;63889;50.596;8.690;2023-11-21T12:50:57;11.30;99.90
14170;DHT22;63889;50.596;8.690;2023-11-21T12:53:25;11.30;99.90
14170;DHT22;63889;50.596;8.690;2023-11-21T12:55:51;11.30;99.90
14170;DHT22;63889;50.596;8.690;2023-11-21T12:58:17;11.40;99.90
14170;DHT22;63889;50.596;8.690;2023-11-21T13:00:47;11.30;99.90
14170;DHT22;63889;50.596;8.690;2023-11-21T13:03:14;11.40;99.90
14170;DHT22;63889;50.596;8.690;2023-11-21T13:05:46;11.30;99.90
14170;DHT22;63889;50.596;8.690;2023-11-21T13:08:16;11.30;99.90
14170;DHT22;63889;50.596;8.690;2023-11-21T13:10:45;11.30;99.90
14170;DHT22;63889;50.596;8.690;2023-11-21T13:13:13;11.30;99.90
14170;DHT22;63889;50.596;8.690;2023-11-21T13:15:48;11.30;99.90
14170;DHT22;63889;50.596;8.690;2023-11-21T13:18:14;11.10;99.90
14170;DHT22;63889;50.596;8.690;2023-11-21T13:20:40;11.10;99.90
14170;DHT22;63889;50.596;8.690;2023-11-21T13:23:09;11.20;99.90
14170;DHT22;63889;50.596;8.690;2023-11-21T13:25:38;11.20;99.90
14170;DHT22;63889;50.596;8.690;2023-11-21T13:28:04;11.20;99.90
14170;DHT22;63889;50.596;8.690;2023-11-21T13:30:30;11.20;99.90
14170;DHT22;63889;50.596;8.690;2023-11-21T13:33:03;11.20;99.90
14170;DHT22;63889;50.596;8.690;2023-11-21T13:35:37;11.20;99.90
14170;DHT22;63889;50.596;8.690;2023-11-21T13:38:15;11.20;99.90
14170;DHT22;63889;50.596;8.690;2023-11-21T13:40:49;11.20;99.90
14170;DHT22;63889;50.596;8.690;2023-11-21T13:43:18;11.30;99.90
14170;DHT22;63889;50.596;8.690;2023-11-21T13:45:46;11.30;99.90
14170;DHT22;63889;50.596;8.690;2023-11-21T13:48:13;11.20;99.90
14170;DHT22;63889;50.596;8.690;2023-11-21T13:50:50;11.20;99.90
14170;DHT22;63889;50.596;8.690;2023-11-21T13:53:33;11.10;99.90
14170;DHT22;63889;50.596;8.690;2023-11-21T13:56:01;11.10;99.90
14170;DHT22;63889;50.596;8.690;2023-11-21T13:58:27;11.10;99.90
14170;DHT22;63889;50.596;8.690;2023-11-21T14:01:13;11.00;99.90
14170;DHT22;63889;50.596;8.690;2023-11-21T14:04:10;11.00;99.90
14170;DHT22;63889;50.596;8.690;2023-11-21T14:06:49;10.90;99.90
14170;DHT22;63889;50.596;8.690;2023-11-21T14:09:17;10.80;99.90
14170;DHT22;63889;50.596;8.690;2023-11-21T14:11:55;10.70;99.90
14170;DHT22;63889;50.596;8.690;2023-11-21T14:14:24;10.60;99.90
14170;DHT22;63889;50.596;8.690;2023-11-21T14:16:50;10.60;99.90
14170;DHT22;63889;50.596;8.690;2023-11-21T14:19:16;10.60;99.90
14170;DHT22;63889;50.596;8.690;2023-11-21T14:21:45;10.70;99.90
14170;DHT22;63889;50.596;8.690;2023-11-21T14:24:12;10.70;99.90
14170;DHT22;63889;50.596;8.690;2023-11-21T14:26:43;10.70;99.90
14170;DHT22;63889;50.596;8.690;2023-11-21T14:29:11;10.60;99.90
14170;DHT22;63889;50.596;8.690;2023-11-21T14:31:40;10.60;99.90
14170;DHT22;63889;50.596;8.690;2023-11-21T14:34:06;10.70;99.90
14170;DHT22;63889;50.596;8.690;2023-11-21T14:36:33;10.60;99.90
14170;DHT22;63889;50.596;8.690;2023-11-21T14:38:59;10.70;99.90
14170;DHT22;63889;50.596;8.690;2023-11-21T14:41:24;10.70;99.90
14170;DHT22;63889;50.596;8.690;2023-11-21T14:43:53;10.60;99.90
14170;DHT22;63889;50.596;8.690;2023-11-21T14:46:19;10.70;99.90
14170;DHT22;63889;50.596;8.690;2023-11-21T14:48:45;10.70;99.90
14170;DHT22;63889;50.596;8.690;2023-11-21T14:51:24;10.60;99.90
14170;DHT22;63889;50.596;8.690;2023-11-21T14:53:59;10.70;99.90
14170;DHT22;63889;50.596;8.690;2023-11-21T14:56:35;10.80;99.90
14170;DHT22;63889;50.596;8.690;2023-11-21T14:59:02;10.70;99.90
14170;DHT22;63889;50.596;8.690;2023-11-21T15:01:38;10.80;99.90
14170;DHT22;63889;50.596;8.690;2023-11-21T15:04:23;10.70;99.90
14170;DHT22;63889;50.596;8.690;2023-11-21T15:07:01;10.70;99.90
14170;DHT22;63889;50.596;8.690;2023-11-21T15:09:28;10.80;99.90
14170;DHT22;63889;50.596;8.690;2023-11-21T15:11:56;10.80;99.90
14170;DHT22;63889;50.596;8.690;2023-11-21T15:14:28;10.80;99.90
14170;DHT22;63889;50.596;8.690;2023-11-21T15:16:57;10.90;99.90
14170;DHT22;63889;50.596;8.690;2023-11-21T15:19:25;10.90;99.90
14170;DHT22;63889;50.596;8.690;2023-11-21T15:21:51;10.90;99.90
14170;DHT22;63889;50.596;8.690;2023-11-21T15:24:17;10.90;99.90
14170;DHT22;63889;50.596;8.690;2023-11-21T15:26:43;10.90;99.90
14170;DHT22;63889;50.596;8.690;2023-11-21T15:29:08;10.90;99.90
14170;DHT22;63889;50.596;8.690;2023-11-21T15:31:34;10.90;99.90
14170;DHT22;63889;50.596;8.690;2023-11-21T15:34:01;10.90;99.90
14170;DHT22;63889;50.596;8.690;2023-11-21T15:36:27;10.90;99.90
14170;DHT22;63889;50.596;8.690;2023-11-21T15:38:53;10.80;99.90
14170;DHT22;63889;50.596;8.690;2023-11-21T15:41:19;10.70;99.90
14170;DHT22;63889;50.596;8.690;2023-11-21T15:43:45;10.70;99.90
14170;DHT22;63889;50.596;8.690;2023-11-21T15:46:10;10.80;99.90
14170;DHT22;63889;50.596;8.690;2023-11-21T15:48:36;10.70;99.90
14170;DHT22;63889;50.596;8.690;2023-11-21T15:51:06;10.80;99.90
14170;DHT22;63889;50.596;8.690;2023-11-21T15:53:33;10.80;99.90